Time;durP1;ratioP1;P1;durP2;ratioP2;P2;SDS_P1;SDS_P2;PMS_P1;PMS_P2;Temp;Humidity;BMP_temperature;BMP_pressure;BME280_temperature;BME280_humidity;BME280_pressure;Samples;Min_cycle;Max_cycle;Signal;HPM_P1;HPM_P2
2022/12/02 00:02:21;;;;;;;0.50;0.50;;;4.20;99.90;;;;;;5113972;28;20447;-81
2022/12/02 00:04:55;;;;;;;0.63;0.63;;;4.20;99.90;;;;;;5113413;28;20958;-81
2022/12/02 00:07:21;;;;;;;3.93;0.90;;;4.20;99.90;;;;;;5114009;28;20978;-81
2022/12/02 00:09:48;;;;;;;1.47;1.37;;;4.20;99.90;;;;;;5113922;28;20439;-80
2022/12/02 00:12:20;;;;;;;1.17;1.03;;;4.10;99.90;;;;;;5113471;28;20485;-81
2022/12/02 00:14:55;;;;;;;4.40;1.43;;;4.10;99.90;;;;;;5113668;28;20463;-81
2022/12/02 00:17:23;;;;;;;0.60;0.60;;;4.10;99.90;;;;;;5113376;28;20930;-81
2022/12/02 00:19:51;;;;;;;0.73;0.73;;;4.10;99.90;;;;;;5113384;28;20451;-80
2022/12/02 00:22:18;;;;;;;5.17;1.00;;;4.10;99.90;;;;;;5113674;28;20438;-80
2022/12/02 00:24:44;;;;;;;2.83;0.83;;;4.10;99.90;;;;;;5113632;28;20471;-81
2022/12/02 00:27:11;;;;;;;0.60;0.60;;;4.10;99.90;;;;;;5113179;28;20989;-80
2022/12/02 00:29:38;;;;;;;8.80;1.70;;;4.10;99.90;;;;;;5115388;28;20443;-80
2022/12/02 00:32:05;;;;;;;3.77;0.77;;;4.10;99.90;;;;;;5117554;27;20439;-80
2022/12/02 00:34:34;;;;;;;2.97;0.57;;;4.00;99.90;;;;;;5117187;28;20471;-80
2022/12/02 00:37:00;;;;;;;1.23;1.13;;;4.00;99.90;;;;;;5117439;28;20498;-80
2022/12/02 00:39:27;;;;;;;1.80;0.70;;;4.00;99.90;;;;;;5117106;28;20945;-80
2022/12/02 00:41:54;;;;;;;1.37;0.63;;;4.00;99.90;;;;;;5117380;28;20447;-80
2022/12/02 00:47:05;;;;;;;1.40;1.30;;;3.90;99.90;;;;;;5117314;28;20508;-80
2022/12/02 00:49:33;;;;;;;8.60;1.60;;;3.90;99.90;;;;;;5117237;28;20450;-80
2022/12/02 00:52:00;;;;;;;0.43;0.43;;;3.90;99.90;;;;;;5116837;28;20454;-80
2022/12/02 00:54:27;;;;;;;1.07;1.07;;;3.90;99.90;;;;;;5117027;28;20474;-80
2022/12/02 00:56:54;;;;;;;2.30;2.10;;;3.90;99.90;;;;;;5117774;28;20530;-80
2022/12/02 00:59:21;;;;;;;3.37;1.40;;;4.00;99.90;;;;;;5116678;28;20453;-80
2022/12/02 01:01:48;;;;;;;2.73;1.43;;;4.00;99.90;;;;;;5116987;28;20447;-80
2022/12/02 01:04:15;;;;;;;0.60;0.60;;;4.00;99.90;;;;;;5116815;28;20474;-80
2022/12/02 01:06:43;;;;;;;2.43;2.03;;;4.00;99.90;;;;;;5116795;28;20475;-80
2022/12/02 01:09:10;;;;;;;2.40;1.07;;;4.00;99.90;;;;;;5116487;28;20451;-80
2022/12/02 01:11:37;;;;;;;3.10;1.10;;;4.00;99.90;;;;;;5116781;28;20450;-80
2022/12/02 01:14:04;;;;;;;4.67;1.27;;;4.00;99.90;;;;;;5116641;28;20447;-80
2022/12/02 01:16:31;;;;;;;2.60;0.80;;;4.00;99.90;;;;;;5116663;28;20444;-81
2022/12/02 01:18:57;;;;;;;0.87;0.63;;;4.00;99.90;;;;;;5116705;28;20448;-81
2022/12/02 01:21:24;;;;;;;1.83;1.10;;;4.00;99.90;;;;;;5116434;28;20457;-81
2022/12/02 01:23:52;;;;;;;0.70;0.70;;;4.00;99.90;;;;;;5116245;28;20443;-80
2022/12/02 01:26:19;;;;;;;0.90;0.50;;;3.90;99.90;;;;;;5116031;28;20982;-81
2022/12/02 01:28:46;;;;;;;8.33;0.77;;;3.90;99.90;;;;;;5116381;28;20973;-80
2022/12/02 01:31:13;;;;;;;0.70;0.70;;;3.90;99.90;;;;;;5116398;28;20454;-81
2022/12/02 01:33:41;;;;;;;1.33;0.70;;;3.90;99.90;;;;;;5116233;28;20546;-80
2022/12/02 01:36:08;;;;;;;1.33;0.90;;;3.90;99.90;;;;;;5115874;28;20986;-81
2022/12/02 01:38:35;;;;;;;1.23;1.23;;;4.00;99.90;;;;;;5115908;28;20943;-81
2022/12/02 01:41:04;;;;;;;4.17;3.80;;;3.90;99.90;;;;;;5115249;28;20454;-81
2022/12/02 01:43:31;;;;;;;1.83;1.70;;;4.00;99.90;;;;;;5116109;28;20456;-80
2022/12/02 01:45:58;;;;;;;1.27;1.00;;;4.00;99.90;;;;;;5115845;28;20483;-81
2022/12/02 01:48:25;;;;;;;4.20;0.90;;;4.00;99.90;;;;;;5115654;28;20448;-80
2022/12/02 01:50:52;;;;;;;2.67;1.23;;;4.00;99.90;;;;;;5115655;28;20943;-80
2022/12/02 01:53:19;;;;;;;0.83;0.83;;;4.00;99.90;;;;;;5115949;28;20448;-81
2022/12/02 01:55:46;;;;;;;0.57;0.57;;;4.00;99.90;;;;;;5115568;27;20987;-81
2022/12/02 01:58:15;;;;;;;8.53;1.33;;;4.10;99.90;;;;;;5115854;28;20450;-81
2022/12/02 02:00:42;;;;;;;2.83;1.43;;;4.20;99.90;;;;;;5115827;27;20450;-81
2022/12/02 02:03:08;;;;;;;1.00;0.93;;;4.10;99.90;;;;;;5115493;28;20444;-81
2022/12/02 02:05:35;;;;;;;10.43;1.57;;;4.10;99.90;;;;;;5115588;28;20459;-81
2022/12/02 02:08:05;;;;;;;9.03;1.47;;;4.10;99.90;;;;;;5115345;28;20973;-81
2022/12/02 02:10:34;;;;;;;3.40;1.27;;;4.10;99.90;;;;;;5115672;27;20432;-81
2022/12/02 02:13:01;;;;;;;1.43;1.30;;;4.10;99.90;;;;;;5115292;28;21002;-80
2022/12/02 02:15:30;;;;;;;2.30;0.80;;;4.10;99.90;;;;;;5115472;28;20506;-81
2022/12/02 02:17:58;;;;;;;0.80;0.80;;;4.10;99.90;;;;;;5115464;28;20447;-81
2022/12/02 02:20:26;;;;;;;1.37;0.97;;;4.10;99.90;;;;;;5115149;28;20487;-81
2022/12/02 02:23:01;;;;;;;6.53;1.30;;;4.00;99.90;;;;;;5115419;28;20455;-81
2022/12/02 02:25:29;;;;;;;9.50;2.30;;;4.10;99.90;;;;;;5115370;28;20994;-81
2022/12/02 02:27:58;;;;;;;0.93;0.93;;;4.10;99.90;;;;;;5114870;28;20479;-81
2022/12/02 02:30:27;;;;;;;4.23;1.50;;;4.10;99.90;;;;;;5114957;28;20940;-80
2022/12/02 02:32:54;;;;;;;1.80;0.70;;;4.10;99.90;;;;;;5115432;28;20444;-81
2022/12/02 02:35:21;;;;;;;1.73;1.27;;;4.10;99.90;;;;;;5115059;28;20459;-81
2022/12/02 02:37:49;;;;;;;0.93;0.60;;;4.10;99.90;;;;;;5115155;28;20440;-81
2022/12/02 02:40:17;;;;;;;1.20;1.10;;;4.10;99.90;;;;;;5114733;28;20455;-81
2022/12/02 02:42:47;;;;;;;3.13;1.23;;;4.10;99.90;;;;;;5115008;28;20534;-81
2022/12/02 02:45:15;;;;;;;0.40;0.40;;;4.10;99.90;;;;;;5114653;28;20548;-81
2022/12/02 02:47:42;;;;;;;1.50;1.43;;;4.20;99.90;;;;;;5114584;27;20475;-81
2022/12/02 02:50:09;;;;;;;1.33;1.23;;;4.20;99.90;;;;;;5114829;28;20448;-81
2022/12/02 02:52:36;;;;;;;1.37;1.17;;;4.10;99.90;;;;;;5114304;28;20966;-81
2022/12/02 02:55:04;;;;;;;5.90;2.10;;;4.10;99.90;;;;;;5114670;28;20463;-81
2022/12/02 02:57:31;;;;;;;0.73;0.50;;;4.10;99.90;;;;;;5114388;28;20448;-80
2022/12/02 02:59:59;;;;;;;4.00;1.70;;;4.10;99.90;;;;;;5114666;28;20444;-81
2022/12/02 03:02:26;;;;;;;1.90;1.10;;;4.10;99.90;;;;;;5114863;28;20525;-81
2022/12/02 03:04:53;;;;;;;0.83;0.83;;;4.10;99.90;;;;;;5114537;28;20460;-81
2022/12/02 03:07:21;;;;;;;1.80;1.20;;;4.10;99.90;;;;;;5114744;28;20482;-81
2022/12/02 03:09:49;;;;;;;2.80;1.17;;;4.10;99.90;;;;;;5114469;28;20451;-81
2022/12/02 03:12:16;;;;;;;4.43;1.10;;;4.10;99.90;;;;;;5114232;28;20428;-81
2022/12/02 03:14:44;;;;;;;1.30;1.27;;;4.10;99.90;;;;;;5114351;28;20459;-81
2022/12/02 03:17:13;;;;;;;0.53;0.53;;;4.10;99.90;;;;;;5114393;28;20789;-81
2022/12/02 03:19:42;;;;;;;5.60;2.97;;;4.10;99.90;;;;;;5114111;28;20448;-81
2022/12/02 03:22:09;;;;;;;23.70;1.90;;;4.10;99.90;;;;;;5114357;28;20434;-81
2022/12/02 03:24:38;;;;;;;3.13;1.17;;;4.10;99.90;;;;;;5113904;28;21025;-81
2022/12/02 03:27:05;;;;;;;4.67;1.20;;;4.20;99.90;;;;;;5114171;28;20483;-81
2022/12/02 03:29:33;;;;;;;1.00;0.80;;;4.10;99.90;;;;;;5114320;28;20573;-81
2022/12/02 03:32:00;;;;;;;0.70;0.70;;;4.10;99.90;;;;;;5114695;28;20450;-81
2022/12/02 03:34:29;;;;;;;5.93;1.50;;;4.10;99.90;;;;;;5114033;28;20464;-81
2022/12/02 03:36:57;;;;;;;1.13;0.90;;;4.10;99.90;;;;;;5114075;28;20812;-81
2022/12/02 03:39:24;;;;;;;0.60;0.60;;;4.10;99.90;;;;;;5114083;28;20444;-81
2022/12/02 03:41:50;;;;;;;0.43;0.43;;;4.10;99.90;;;;;;5114010;28;20452;-81
2022/12/02 03:44:17;;;;;;;0.83;0.80;;;4.10;99.90;;;;;;5114518;28;20447;-81
2022/12/02 03:46:46;;;;;;;0.80;0.80;;;4.10;99.90;;;;;;5114072;28;20479;-81
2022/12/02 03:49:15;;;;;;;0.33;0.30;;;4.10;99.90;;;;;;5113930;28;20447;-81
2022/12/02 03:51:44;;;;;;;2.97;1.30;;;4.10;99.90;;;;;;5114067;28;20450;-81
2022/12/02 03:54:12;;;;;;;14.33;1.00;;;4.10;99.90;;;;;;5113791;28;20444;-81
2022/12/02 03:56:40;;;;;;;4.40;2.47;;;4.10;99.90;;;;;;5113774;28;20446;-81
2022/12/02 03:59:07;;;;;;;1.30;1.27;;;4.10;99.90;;;;;;5113790;28;20447;-81
2022/12/02 04:01:33;;;;;;;1.50;1.40;;;4.00;99.90;;;;;;5113855;28;20451;-81
2022/12/02 04:04:00;;;;;;;3.13;1.13;;;4.00;99.90;;;;;;5114357;28;20448;-81
2022/12/02 04:06:27;;;;;;;0.87;0.87;;;4.00;99.90;;;;;;5117947;28;20471;-81
2022/12/02 04:08:55;;;;;;;1.63;1.43;;;4.00;99.90;;;;;;5117684;28;21047;-80
2022/12/02 04:11:22;;;;;;;1.33;0.77;;;4.00;99.90;;;;;;5117631;28;20459;-81
2022/12/02 04:13:49;;;;;;;0.90;0.90;;;4.00;99.90;;;;;;5117864;28;20463;-81
2022/12/02 04:16:16;;;;;;;1.43;0.80;;;4.00;99.90;;;;;;5117534;28;20977;-81
2022/12/02 04:18:42;;;;;;;8.63;1.60;;;4.00;99.90;;;;;;5117676;28;20798;-81
2022/12/02 04:21:09;;;;;;;0.63;0.63;;;4.00;99.90;;;;;;5117396;28;20508;-81
2022/12/02 04:23:36;;;;;;;5.33;1.40;;;4.00;99.90;;;;;;5117720;28;20444;-81
2022/12/02 04:26:04;;;;;;;2.53;0.53;;;4.00;99.90;;;;;;5117606;28;20464;-81
2022/12/02 04:28:31;;;;;;;0.63;0.63;;;4.00;99.90;;;;;;5117559;28;20475;-81
2022/12/02 04:30:58;;;;;;;3.77;1.60;;;4.00;99.90;;;;;;5117513;27;20458;-81
2022/12/02 04:33:24;;;;;;;1.80;1.63;;;4.00;99.90;;;;;;5117506;28;20448;-81
2022/12/02 04:35:51;;;;;;;1.80;0.60;;;4.00;99.90;;;;;;5117427;28;20830;-80
2022/12/02 04:38:18;;;;;;;4.00;0.60;;;4.00;99.90;;;;;;5117433;28;20440;-81
2022/12/02 04:40:45;;;;;;;2.53;2.17;;;4.00;99.90;;;;;;5117113;28;20939;-81
2022/12/02 04:43:13;;;;;;;5.40;2.00;;;4.00;99.90;;;;;;5117326;28;20447;-81
2022/12/02 04:45:40;;;;;;;2.30;1.03;;;4.00;99.90;;;;;;5117226;28;20541;-81
2022/12/02 04:48:06;;;;;;;2.70;0.60;;;4.10;99.90;;;;;;5117193;28;20479;-81
2022/12/02 04:50:33;;;;;;;0.97;0.40;;;4.10;99.90;;;;;;5117437;28;20488;-81
2022/12/02 04:53:00;;;;;;;1.67;1.57;;;4.00;99.90;;;;;;5117043;28;20938;-81
2022/12/02 04:55:27;;;;;;;2.73;1.57;;;4.10;99.90;;;;;;5116891;28;20998;-81
2022/12/02 04:57:54;;;;;;;0.70;0.70;;;4.10;99.90;;;;;;5116756;28;20800;-81
2022/12/02 05:00:22;;;;;;;2.83;1.03;;;4.10;99.90;;;;;;5117053;28;20448;-81
2022/12/02 05:02:49;;;;;;;2.63;1.17;;;4.10;99.90;;;;;;5116949;28;20450;-81
2022/12/02 05:05:16;;;;;;;1.50;1.23;;;4.10;99.90;;;;;;5116528;28;20850;-81
2022/12/02 05:07:43;;;;;;;1.97;0.97;;;4.00;99.90;;;;;;5116768;28;20475;-81
2022/12/02 05:10:10;;;;;;;4.47;2.00;;;4.00;99.90;;;;;;5116498;28;20450;-81
2022/12/02 05:12:37;;;;;;;1.53;1.43;;;3.90;99.90;;;;;;5116808;28;20447;-81
2022/12/02 05:15:04;;;;;;;1.57;1.47;;;4.00;99.90;;;;;;5116531;28;20471;-81
2022/12/02 05:17:32;;;;;;;1.03;0.93;;;4.00;99.90;;;;;;5116357;28;20439;-81
2022/12/02 05:19:59;;;;;;;3.43;0.80;;;4.00;99.90;;;;;;5116420;28;20848;-81
2022/12/02 05:22:26;;;;;;;5.10;1.13;;;4.00;99.90;;;;;;5116638;28;20432;-81
2022/12/02 05:24:53;;;;;;;4.53;0.83;;;4.00;99.90;;;;;;5116426;28;20468;-81
2022/12/02 05:27:19;;;;;;;1.03;1.00;;;4.00;99.90;;;;;;5116391;28;20490;-81
2022/12/02 05:29:46;;;;;;;2.53;0.80;;;4.00;99.90;;;;;;5116628;28;20450;-81
2022/12/02 05:32:13;;;;;;;0.83;0.70;;;4.00;99.90;;;;;;5116380;28;20444;-81
2022/12/02 05:34:41;;;;;;;5.30;1.33;;;4.00;99.90;;;;;;5116217;28;20478;-81
2022/12/02 05:37:08;;;;;;;1.90;1.07;;;4.10;99.90;;;;;;5116313;28;20443;-81
2022/12/02 05:39:35;;;;;;;3.50;1.90;;;4.00;99.90;;;;;;5116298;28;20451;-81
2022/12/02 05:42:05;;;;;;;2.30;2.00;;;4.00;99.90;;;;;;5116217;28;20467;-81
2022/12/02 05:44:33;;;;;;;0.50;0.50;;;4.00;99.90;;;;;;5115783;28;20459;-81
2022/12/02 05:47:02;;;;;;;0.67;0.67;;;4.00;99.90;;;;;;5116004;27;20516;-81
2022/12/02 05:49:30;;;;;;;0.50;0.40;;;4.00;99.90;;;;;;5116094;28;20459;-81
2022/12/02 05:52:00;;;;;;;0.83;0.83;;;4.00;99.90;;;;;;5116000;28;20886;-81
2022/12/02 05:54:28;;;;;;;1.23;1.07;;;4.00;99.90;;;;;;5115963;28;20466;-81
2022/12/02 05:56:56;;;;;;;1.57;1.47;;;4.00;99.90;;;;;;5115897;28;20444;-81
2022/12/02 05:59:24;;;;;;;5.20;0.90;;;4.00;99.90;;;;;;5115861;28;20450;-81
2022/12/02 06:01:53;;;;;;;2.90;1.73;;;4.00;99.90;;;;;;5115976;28;20960;-81
2022/12/02 06:04:24;;;;;;;0.80;0.67;;;3.90;99.90;;;;;;5115675;28;20452;-82
2022/12/02 06:06:53;;;;;;;2.07;1.97;;;3.90;99.90;;;;;;5115720;28;20442;-81
2022/12/02 06:09:25;;;;;;;0.67;0.67;;;3.90;99.90;;;;;;5115727;28;20451;-81
2022/12/02 06:11:53;;;;;;;1.23;0.77;;;3.90;99.90;;;;;;5115401;28;20903;-82
2022/12/02 06:14:22;;;;;;;1.70;1.53;;;3.90;99.90;;;;;;5115631;28;20448;-81
2022/12/02 06:16:53;;;;;;;0.40;0.40;;;3.80;99.90;;;;;;5115549;28;20443;-81
2022/12/02 06:19:24;;;;;;;2.47;1.50;;;3.80;99.90;;;;;;5115511;28;20443;-81
2022/12/02 06:21:52;;;;;;;5.93;1.03;;;3.80;99.90;;;;;;5115027;28;20996;-81
2022/12/02 06:24:27;;;;;;;10.17;2.20;;;3.80;99.90;;;;;;5116082;28;20452;-81
2022/12/02 06:26:57;;;;;;;3.70;1.20;;;3.80;99.90;;;;;;5115569;28;20432;-81
2022/12/02 06:29:25;;;;;;;0.57;0.57;;;3.80;99.90;;;;;;5115320;28;20834;-81
2022/12/02 06:31:52;;;;;;;1.53;0.60;;;3.80;99.90;;;;;;5115244;28;20448;-81
2022/12/02 06:34:32;;;;;;;1.27;1.03;;;3.80;99.90;;;;;;5114798;28;20969;-81
2022/12/02 06:37:01;;;;;;;6.57;2.10;;;3.80;99.90;;;;;;5115236;28;20880;-81
2022/12/02 06:39:29;;;;;;;0.93;0.93;;;3.90;99.90;;;;;;5115051;28;20942;-81
2022/12/02 06:41:56;;;;;;;1.17;1.17;;;3.90;99.90;;;;;;5115038;28;20463;-81
2022/12/02 06:47:43;;;;;;;0.70;0.53;;;3.90;99.90;;;;;;5114914;28;20541;-81
2022/12/02 06:50:31;;;;;;;1.83;0.60;;;3.90;99.90;;;;;;5113004;27;20448;-80
2022/12/02 06:53:21;;;;;;;1.30;1.10;;;3.90;99.90;;;;;;5113200;27;20451;-81
2022/12/02 06:55:50;;;;;;;1.27;1.17;;;3.90;99.90;;;;;;5114753;28;20467;-81
2022/12/02 06:58:41;;;;;;;1.27;0.93;;;3.90;99.90;;;;;;5114743;28;20443;-81
2022/12/02 07:01:24;;;;;;;3.20;0.80;;;3.90;99.90;;;;;;5114715;28;20428;-81
2022/12/02 07:04:20;;;;;;;1.80;1.70;;;3.90;99.90;;;;;;5114677;28;20432;-81
2022/12/02 07:06:50;;;;;;;1.23;1.23;;;3.90;99.90;;;;;;5114643;28;20432;-81
2022/12/02 07:09:21;;;;;;;3.33;1.53;;;3.90;99.90;;;;;;5114459;28;20480;-81
2022/12/02 07:11:52;;;;;;;2.67;1.03;;;3.90;99.90;;;;;;5114526;28;20436;-81
2022/12/02 07:14:28;;;;;;;0.40;0.40;;;4.00;99.90;;;;;;5114398;28;20432;-81
2022/12/02 07:16:56;;;;;;;1.30;0.60;;;4.00;99.90;;;;;;5114401;28;20435;-81
2022/12/02 07:19:27;;;;;;;1.27;1.27;;;4.00;99.90;;;;;;5114344;28;20448;-81
2022/12/02 07:21:53;;;;;;;1.47;1.37;;;4.00;99.90;;;;;;5113909;28;20475;-81
2022/12/02 07:24:22;;;;;;;0.70;0.67;;;4.00;99.90;;;;;;5114167;28;20440;-81
2022/12/02 07:26:51;;;;;;;0.50;0.50;;;4.00;99.90;;;;;;5114226;28;20448;-81
2022/12/02 07:29:28;;;;;;;5.90;1.57;;;4.00;99.90;;;;;;5114105;28;20532;-81
2022/12/02 07:31:55;;;;;;;1.17;1.17;;;4.00;99.90;;;;;;5113854;28;20895;-79
2022/12/02 07:34:22;;;;;;;0.80;0.73;;;4.00;99.90;;;;;;5114066;28;20472;-83
2022/12/02 07:36:48;;;;;;;4.47;0.73;;;4.00;99.90;;;;;;5114129;28;20486;-81
2022/12/02 07:39:15;;;;;;;1.67;0.87;;;4.00;99.90;;;;;;5113167;28;20442;-81
2022/12/02 07:41:42;;;;;;;1.10;1.00;;;4.00;99.90;;;;;;5114061;28;20438;-81
2022/12/02 07:44:10;;;;;;;1.77;0.97;;;4.00;99.90;;;;;;5113918;28;20440;-81
2022/12/02 07:46:37;;;;;;;1.23;1.23;;;4.00;99.90;;;;;;5114016;28;20447;-81
2022/12/02 07:49:04;;;;;;;0.93;0.60;;;4.00;99.90;;;;;;5113919;28;20490;-81
2022/12/02 07:51:30;;;;;;;1.00;0.90;;;4.00;99.90;;;;;;5113880;28;20444;-81
2022/12/02 07:53:57;;;;;;;0.30;0.30;;;4.10;99.90;;;;;;5113878;28;20469;-81
2022/12/02 07:56:24;;;;;;;2.93;2.67;;;4.10;99.90;;;;;;5113748;28;20489;-81
2022/12/02 07:58:51;;;;;;;0.77;0.77;;;4.10;99.90;;;;;;5113841;28;20448;-81
2022/12/02 08:01:19;;;;;;;3.27;1.67;;;4.10;99.90;;;;;;5113825;28;20439;-81
2022/12/02 08:03:45;;;;;;;1.17;1.17;;;4.00;99.90;;;;;;5113804;28;20448;-81
2022/12/02 08:06:12;;;;;;;1.23;1.13;;;4.10;99.90;;;;;;5113689;28;20460;-81
2022/12/02 08:08:39;;;;;;;1.17;1.10;;;4.10;99.90;;;;;;5113933;28;20476;-81
2022/12/02 08:11:06;;;;;;;0.83;0.83;;;4.10;99.90;;;;;;5113712;28;20447;-81
2022/12/02 08:13:33;;;;;;;0.40;0.40;;;4.10;99.90;;;;;;5113956;28;20815;-81
2022/12/02 08:15:59;;;;;;;1.27;0.63;;;4.10;99.90;;;;;;5113625;28;20468;-81
2022/12/02 08:18:27;;;;;;;5.10;2.30;;;4.00;99.90;;;;;;5113686;28;20451;-81
2022/12/02 08:20:54;;;;;;;0.80;0.80;;;4.10;99.90;;;;;;5113115;28;21013;-81
2022/12/02 08:23:21;;;;;;;8.63;1.33;;;4.10;99.90;;;;;;5113316;28;20981;-81
2022/12/02 08:25:48;;;;;;;2.77;0.70;;;4.00;99.90;;;;;;5113242;28;20966;-81
2022/12/02 08:28:14;;;;;;;1.67;0.87;;;4.10;99.90;;;;;;5113498;28;20483;-81
2022/12/02 08:30:41;;;;;;;3.53;0.90;;;4.00;99.90;;;;;;5113516;28;20450;-81
2022/12/02 08:33:08;;;;;;;8.10;1.90;;;4.10;99.90;;;;;;5113556;28;20448;-81
2022/12/02 08:35:38;;;;;;;1.63;1.00;;;4.10;99.90;;;;;;5113424;28;20463;-81
2022/12/02 08:38:05;;;;;;;4.40;0.90;;;4.10;99.90;;;;;;5113519;28;20497;-81
2022/12/02 08:40:33;;;;;;;4.47;1.40;;;4.10;99.90;;;;;;5113179;28;21051;-81
2022/12/02 08:43:00;;;;;;;0.50;0.40;;;4.10;99.90;;;;;;5113494;28;20819;-81
2022/12/02 08:45:27;;;;;;;2.73;1.37;;;4.10;99.90;;;;;;5113343;28;20467;-81
2022/12/02 08:47:54;;;;;;;1.20;0.93;;;4.10;99.90;;;;;;5113295;28;20471;-81
2022/12/02 08:50:21;;;;;;;1.17;1.07;;;4.20;99.90;;;;;;5114332;28;20445;-80
2022/12/02 08:52:49;;;;;;;2.17;0.83;;;4.10;99.90;;;;;;5117208;28;20449;-80
2022/12/02 08:55:16;;;;;;;1.63;0.70;;;4.10;99.90;;;;;;5117142;28;20463;-81
2022/12/02 08:57:42;;;;;;;2.40;0.60;;;4.10;99.90;;;;;;5117114;28;20444;-81
2022/12/02 09:00:11;;;;;;;9.43;1.60;;;4.00;99.90;;;;;;5117084;27;20450;-81
2022/12/02 09:02:38;;;;;;;0.77;0.63;;;4.00;99.90;;;;;;5117308;27;20481;-80
2022/12/02 09:05:05;;;;;;;2.83;1.90;;;4.00;99.90;;;;;;5117045;28;20470;-80
2022/12/02 09:07:32;;;;;;;8.43;1.10;;;4.00;99.90;;;;;;5117072;28;20526;-80
2022/12/02 09:10:00;;;;;;;0.97;0.97;;;4.00;99.90;;;;;;5117069;28;20452;-81
2022/12/02 09:12:27;;;;;;;2.20;1.50;;;4.10;99.90;;;;;;5116949;27;20447;-80
2022/12/02 09:14:54;;;;;;;0.70;0.70;;;4.10;99.90;;;;;;5116919;28;20463;-81
2022/12/02 09:17:21;;;;;;;1.00;1.00;;;4.00;99.90;;;;;;5117164;28;20905;-80
2022/12/02 09:19:48;;;;;;;6.13;1.93;;;4.00;99.90;;;;;;5116383;28;20440;-81
2022/12/02 09:22:15;;;;;;;2.30;1.43;;;4.00;99.90;;;;;;5116802;28;20439;-80
2022/12/02 09:24:41;;;;;;;0.90;0.90;;;4.00;99.90;;;;;;5116264;28;20478;-81
2022/12/02 09:27:09;;;;;;;3.10;1.47;;;4.00;99.90;;;;;;5116656;28;20624;-81
2022/12/02 09:29:36;;;;;;;1.20;0.70;;;4.10;99.90;;;;;;5116186;28;21034;-80
2022/12/02 09:32:03;;;;;;;1.57;0.60;;;4.00;99.90;;;;;;5117364;28;20454;-81
2022/12/02 09:34:30;;;;;;;0.43;0.43;;;4.10;99.90;;;;;;5116380;28;20554;-80
2022/12/02 09:36:57;;;;;;;1.60;0.87;;;4.10;99.90;;;;;;5116449;28;20458;-80
2022/12/02 09:39:23;;;;;;;1.73;1.10;;;4.20;99.90;;;;;;5116355;28;20440;-80
2022/12/02 09:41:50;;;;;;;0.60;0.60;;;4.10;99.90;;;;;;5116048;28;20452;-80
2022/12/02 09:44:19;;;;;;;4.30;0.80;;;4.10;99.90;;;;;;5115894;28;20452;-80
2022/12/02 09:46:46;;;;;;;6.73;1.60;;;4.10;99.90;;;;;;5116184;27;20477;-80
2022/12/02 09:49:13;;;;;;;1.03;1.03;;;4.10;99.90;;;;;;5115789;28;21001;-80
2022/12/02 09:51:41;;;;;;;4.10;1.03;;;4.10;99.90;;;;;;5116136;28;20452;-80
2022/12/02 09:54:08;;;;;;;10.50;0.87;;;4.10;99.90;;;;;;5115686;28;20447;-80
2022/12/02 09:56:35;;;;;;;4.00;1.33;;;4.10;99.90;;;;;;5115678;28;20964;-80
2022/12/02 09:59:10;;;;;;;3.17;1.00;;;4.00;99.90;;;;;;5115971;28;20448;-80
2022/12/02 10:01:39;;;;;;;0.83;0.83;;;4.00;99.90;;;;;;5115068;28;20930;-80
2022/12/02 10:04:06;;;;;;;0.73;0.73;;;4.10;99.90;;;;;;5115812;28;20865;-80
2022/12/02 10:06:32;;;;;;;6.60;1.23;;;4.10;99.90;;;;;;5115902;28;20439;-80
2022/12/02 10:08:59;;;;;;;0.60;0.60;;;4.10;99.90;;;;;;5115675;28;20487;-80
2022/12/02 10:11:28;;;;;;;0.60;0.53;;;4.10;99.90;;;;;;5115859;28;20452;-80
2022/12/02 10:13:56;;;;;;;0.90;0.87;;;4.20;99.90;;;;;;5115629;28;20443;-80
2022/12/02 10:16:23;;;;;;;1.10;1.10;;;4.20;99.90;;;;;;5115579;28;20474;-80
2022/12/02 10:18:51;;;;;;;1.33;0.70;;;4.10;99.90;;;;;;5115305;28;20458;-80
2022/12/02 10:21:18;;;;;;;2.47;0.50;;;4.20;99.90;;;;;;5115134;28;20475;-80
2022/12/02 10:23:54;;;;;;;0.53;0.53;;;4.10;99.90;;;;;;5115125;28;20475;-80
2022/12/02 10:26:21;;;;;;;0.57;0.57;;;4.20;99.90;;;;;;5115636;28;20471;-80
2022/12/02 10:29:04;;;;;;;0.37;0.37;;;4.20;99.90;;;;;;5115322;28;20483;-80
2022/12/02 10:31:31;;;;;;;0.60;0.50;;;4.20;99.90;;;;;;5114533;27;20454;-80
2022/12/02 10:34:02;;;;;;;1.47;1.37;;;4.20;99.90;;;;;;5115298;28;20462;-80
2022/12/02 10:36:34;;;;;;;0.30;0.30;;;4.30;99.90;;;;;;5115262;28;20815;-80
2022/12/02 10:39:21;;;;;;;0.40;0.40;;;4.20;99.90;;;;;;5115218;28;20444;-80
2022/12/02 10:41:49;;;;;;;1.17;0.40;;;4.20;99.90;;;;;;5114861;28;20471;-80
2022/12/02 10:44:18;;;;;;;0.87;0.60;;;4.20;99.90;;;;;;5115015;28;20440;-80
2022/12/02 10:46:45;;;;;;;0.40;0.30;;;4.20;99.90;;;;;;5114944;27;20444;-79
2022/12/02 10:49:24;;;;;;;10.23;0.97;;;4.20;99.90;;;;;;5114821;28;21021;-80
2022/12/02 10:51:50;;;;;;;0.50;0.40;;;4.20;99.90;;;;;;5114686;28;20903;-80
2022/12/02 10:54:27;;;;;;;0.80;0.63;;;4.20;99.90;;;;;;5114777;28;20447;-80
2022/12/02 10:56:55;;;;;;;0.90;0.60;;;4.20;99.90;;;;;;5114824;28;20439;-80
2022/12/02 10:59:23;;;;;;;0.40;0.40;;;4.20;99.90;;;;;;5114486;28;20957;-80
2022/12/02 11:01:51;;;;;;;6.13;1.03;;;4.20;99.90;;;;;;5114429;28;20795;-80
2022/12/02 11:04:19;;;;;;;1.10;0.70;;;4.20;99.90;;;;;;5114646;28;20456;-79
2022/12/02 11:06:48;;;;;;;0.43;0.43;;;4.20;99.90;;;;;;5114555;28;20950;-80
2022/12/02 11:09:16;;;;;;;0.80;0.80;;;4.20;99.90;;;;;;5114775;28;20483;-80
2022/12/02 11:11:43;;;;;;;7.57;2.23;;;4.20;99.90;;;;;;5114166;28;20996;-80
2022/12/02 11:14:12;;;;;;;0.40;0.40;;;4.20;99.90;;;;;;5114287;28;20451;-79
2022/12/02 11:16:45;;;;;;;0.43;0.43;;;4.20;99.90;;;;;;5114468;28;20502;-79
2022/12/02 11:19:42;;;;;;;0.30;0.30;;;4.20;99.90;;;;;;5114430;28;20829;-79
2022/12/02 11:22:42;;;;;;;1.57;1.30;;;4.20;99.90;;;;;;5114321;28;20432;-79
2022/12/02 11:25:50;;;;;;;1.00;0.90;;;4.20;99.90;;;;;;5113976;28;20471;-79
2022/12/02 11:28:51;;;;;;;0.33;0.33;;;4.30;99.90;;;;;;5113964;28;20899;-79
2022/12/02 11:31:24;;;;;;;1.80;0.60;;;4.30;99.90;;;;;;5114263;28;20442;-79
2022/12/02 11:34:01;;;;;;;0.90;0.40;;;4.20;99.90;;;;;;5114767;28;20428;-79
2022/12/02 11:36:30;;;;;;;0.63;0.63;;;4.20;99.90;;;;;;5113830;28;20838;-80
2022/12/02 11:39:03;;;;;;;1.47;0.40;;;4.20;99.90;;;;;;5113843;28;20519;-79
2022/12/02 11:42:11;;;;;;;1.27;0.50;;;4.20;99.90;;;;;;5114412;28;20476;-79
2022/12/02 11:44:39;;;;;;;0.60;0.60;;;4.20;99.90;;;;;;5113641;28;20982;-79
2022/12/02 11:47:05;;;;;;;0.50;0.50;;;4.10;99.90;;;;;;5114046;28;20443;-79
2022/12/02 11:49:35;;;;;;;0.67;0.43;;;4.20;99.90;;;;;;5113603;28;20851;-79
2022/12/02 11:52:06;;;;;;;1.70;0.70;;;4.20;99.90;;;;;;5113655;28;20795;-79
2022/12/02 11:54:37;;;;;;;0.50;0.50;;;4.20;99.90;;;;;;5113890;28;20465;-79
2022/12/02 11:57:04;;;;;;;0.47;0.47;;;4.20;99.90;;;;;;5113545;28;20977;-81
2022/12/02 11:59:34;;;;;;;0.70;0.50;;;4.20;99.90;;;;;;5113900;28;20439;-81
2022/12/02 12:02:10;;;;;;;0.70;0.70;;;4.20;99.90;;;;;;5113887;28;20447;-81
2022/12/02 12:04:37;;;;;;;0.30;0.30;;;4.20;99.90;;;;;;5113824;28;20459;-81
2022/12/02 12:07:04;;;;;;;0.50;0.50;;;4.20;99.90;;;;;;5114065;28;20470;-81
2022/12/02 12:09:31;;;;;;;0.50;0.50;;;4.20;99.90;;;;;;5114285;28;20486;-81
2022/12/02 12:12:09;;;;;;;4.67;1.13;;;4.20;99.90;;;;;;5114221;28;20446;-81
2022/12/02 12:14:58;;;;;;;0.73;0.73;;;4.20;99.90;;;;;;5113749;28;20489;-81
2022/12/02 12:17:46;;;;;;;0.97;0.40;;;4.10;99.90;;;;;;5113530;28;20431;-81
2022/12/02 12:20:44;;;;;;;0.60;0.50;;;4.10;99.90;;;;;;5113230;28;20986;-81
2022/12/02 12:23:31;;;;;;;3.47;0.97;;;4.10;99.90;;;;;;5113697;28;20454;-81
2022/12/02 12:25:58;;;;;;;1.07;0.97;;;4.10;99.90;;;;;;5115790;28;20482;-82
2022/12/02 12:28:27;;;;;;;1.73;1.63;;;4.10;99.90;;;;;;5117493;28;20934;-81
2022/12/02 12:30:54;;;;;;;0.93;0.77;;;4.20;99.90;;;;;;5117679;28;20435;-81
2022/12/02 12:33:22;;;;;;;0.30;0.30;;;4.10;99.90;;;;;;5118189;28;20447;-83
2022/12/02 12:35:49;;;;;;;4.20;0.77;;;4.10;99.90;;;;;;5120079;28;20469;-83
2022/12/02 12:38:16;;;;;;;1.03;0.90;;;4.10;99.90;;;;;;5121138;28;20440;-83
2022/12/02 12:40:42;;;;;;;0.47;0.47;;;4.20;99.90;;;;;;5120022;28;20447;-83
2022/12/02 12:43:09;;;;;;;3.63;0.80;;;4.20;99.90;;;;;;5120924;28;20419;-83
2022/12/02 12:45:36;;;;;;;0.50;0.40;;;4.20;99.90;;;;;;5120233;28;20471;-83
2022/12/02 12:48:03;;;;;;;1.50;1.47;;;4.20;99.90;;;;;;5119559;28;20439;-83
2022/12/02 12:50:31;;;;;;;0.93;0.40;;;4.20;99.90;;;;;;5119317;28;20478;-83
2022/12/02 12:52:58;;;;;;;1.83;1.83;;;4.20;99.90;;;;;;5118979;28;20451;-83
2022/12/02 12:55:25;;;;;;;0.73;0.73;;;4.10;99.90;;;;;;5118497;28;20463;-83
2022/12/02 12:57:52;;;;;;;2.23;1.00;;;4.10;99.90;;;;;;5118639;28;20458;-83
2022/12/02 13:00:20;;;;;;;0.40;0.33;;;4.10;99.90;;;;;;5118866;28;20420;-83
2022/12/02 13:02:48;;;;;;;0.50;0.50;;;4.10;99.90;;;;;;5120713;27;20447;-82
2022/12/02 13:05:15;;;;;;;0.30;0.30;;;4.10;99.90;;;;;;5118635;28;20474;-84
2022/12/02 13:07:43;;;;;;;0.30;0.30;;;4.20;99.90;;;;;;5118215;27;20454;-82
2022/12/02 13:10:10;;;;;;;1.30;0.60;;;4.10;99.90;;;;;;5116998;28;20487;-82
2022/12/02 13:12:37;;;;;;;1.23;0.50;;;4.10;99.90;;;;;;5117064;28;20517;-82
2022/12/02 13:15:05;;;;;;;1.23;0.63;;;4.10;99.90;;;;;;5116826;28;20464;-82